Terminal Aerodrome Forecast
Issued by NWS

Home | Current Version | Previous Version | Text Only | Print | Product List | Glossary On
Versions: 1 2 3 4 5 6 7 8 9 10 11 12 13 14 15 16 17
445
FTUS41 KGYX 240529
TAFHIE
TAF
KHIE 240529Z 2406/2506 15006KT 6SM BR OVC070
     FM241400 15011G21KT P6SM VCSH OVC025
     FM242300 15011G25KT P6SM -RA OVC003=

USA.gov is the U.S. government's official web portal to all federal, state and local government web resources and services.